sensor_id;sensor_type;location;lat;lon;timestamp;P1;durP1;ratioP1;P2;durP2;ratioP2
29662;SDS011;16578;53.266;7.920;2023-09-08T00:02:00;5.35;;;4.28;;
29662;SDS011;16578;53.266;7.920;2023-09-08T00:04:25;5.03;;;4.53;;
29662;SDS011;16578;53.266;7.920;2023-09-08T00:06:51;5.90;;;4.28;;
29662;SDS011;16578;53.266;7.920;2023-09-08T00:09:16;8.80;;;4.70;;
29662;SDS011;16578;53.266;7.920;2023-09-08T00:11:42;5.95;;;4.55;;
29662;SDS011;16578;53.266;7.920;2023-09-08T00:14:07;7.15;;;4.60;;
29662;SDS011;16578;53.266;7.920;2023-09-08T00:16:33;6.40;;;4.15;;
29662;SDS011;16578;53.266;7.920;2023-09-08T00:18:58;5.13;;;4.63;;
29662;SDS011;16578;53.266;7.920;2023-09-08T00:21:24;5.25;;;4.60;;
29662;SDS011;16578;53.266;7.920;2023-09-08T00:23:51;5.43;;;4.93;;
29662;SDS011;16578;53.266;7.920;2023-09-08T00:26:17;5.53;;;4.50;;
29662;SDS011;16578;53.266;7.920;2023-09-08T00:28:42;7.07;;;4.38;;
29662;SDS011;16578;53.266;7.920;2023-09-08T00:31:08;4.93;;;4.43;;
29662;SDS011;16578;53.266;7.920;2023-09-08T00:33:33;5.20;;;4.30;;
29662;SDS011;16578;53.266;7.920;2023-09-08T00:35:59;7.22;;;4.95;;
29662;SDS011;16578;53.266;7.920;2023-09-08T00:38:25;5.38;;;4.45;;
29662;SDS011;16578;53.266;7.920;2023-09-08T00:40:51;5.70;;;5.00;;
29662;SDS011;16578;53.266;7.920;2023-09-08T00:43:16;5.32;;;4.82;;
29662;SDS011;16578;53.266;7.920;2023-09-08T00:45:42;5.65;;;4.68;;
29662;SDS011;16578;53.266;7.920;2023-09-08T00:48:09;7.10;;;5.00;;
29662;SDS011;16578;53.266;7.920;2023-09-08T00:50:35;6.15;;;4.70;;
29662;SDS011;16578;53.266;7.920;2023-09-08T00:53:02;6.03;;;4.50;;
29662;SDS011;16578;53.266;7.920;2023-09-08T00:55:30;8.65;;;5.05;;
29662;SDS011;16578;53.266;7.920;2023-09-08T00:57:56;4.85;;;4.35;;
29662;SDS011;16578;53.266;7.920;2023-09-08T01:00:23;4.95;;;4.43;;
29662;SDS011;16578;53.266;7.920;2023-09-08T01:02:49;5.50;;;4.97;;
29662;SDS011;16578;53.266;7.920;2023-09-08T01:05:15;5.50;;;4.60;;
29662;SDS011;16578;53.266;7.920;2023-09-08T01:07:41;6.22;;;5.00;;
29662;SDS011;16578;53.266;7.920;2023-09-08T01:10:07;5.20;;;4.60;;
29662;SDS011;16578;53.266;7.920;2023-09-08T01:12:33;7.03;;;4.78;;
29662;SDS011;16578;53.266;7.920;2023-09-08T01:15:00;6.50;;;4.90;;
29662;SDS011;16578;53.266;7.920;2023-09-08T01:17:32;6.55;;;4.97;;
29662;SDS011;16578;53.266;7.920;2023-09-08T01:20:05;6.68;;;5.10;;
29662;SDS011;16578;53.266;7.920;2023-09-08T01:25:57;6.30;;;4.57;;
29662;SDS011;16578;53.266;7.920;2023-09-08T01:28:29;8.02;;;4.90;;
29662;SDS011;16578;53.266;7.920;2023-09-08T01:30:56;6.60;;;4.65;;
29662;SDS011;16578;53.266;7.920;2023-09-08T01:33:22;11.55;;;5.43;;
29662;SDS011;16578;53.266;7.920;2023-09-08T01:35:48;5.63;;;4.80;;
29662;SDS011;16578;53.266;7.920;2023-09-08T01:38:14;8.07;;;4.65;;
29662;SDS011;16578;53.266;7.920;2023-09-08T01:40:40;6.57;;;4.90;;
29662;SDS011;16578;53.266;7.920;2023-09-08T01:43:05;6.45;;;5.13;;
29662;SDS011;16578;53.266;7.920;2023-09-08T01:45:31;6.50;;;5.30;;
29662;SDS011;16578;53.266;7.920;2023-09-08T01:47:56;5.05;;;4.65;;
29662;SDS011;16578;53.266;7.920;2023-09-08T01:50:22;5.50;;;5.00;;
29662;SDS011;16578;53.266;7.920;2023-09-08T01:52:49;7.28;;;5.70;;
29662;SDS011;16578;53.266;7.920;2023-09-08T01:55:15;6.93;;;5.10;;
29662;SDS011;16578;53.266;7.920;2023-09-08T01:57:42;6.25;;;5.40;;
29662;SDS011;16578;53.266;7.920;2023-09-08T02:00:08;5.15;;;4.65;;
29662;SDS011;16578;53.266;7.920;2023-09-08T02:02:34;6.88;;;5.65;;
29662;SDS011;16578;53.266;7.920;2023-09-08T02:05:00;6.05;;;5.30;;
29662;SDS011;16578;53.266;7.920;2023-09-08T02:07:25;5.85;;;5.18;;
29662;SDS011;16578;53.266;7.920;2023-09-08T02:09:51;6.60;;;4.90;;
29662;SDS011;16578;53.266;7.920;2023-09-08T02:12:16;5.68;;;5.07;;
29662;SDS011;16578;53.266;7.920;2023-09-08T02:14:42;5.95;;;5.25;;
29662;SDS011;16578;53.266;7.920;2023-09-08T02:17:07;6.60;;;5.07;;
29662;SDS011;16578;53.266;7.920;2023-09-08T02:19:33;6.22;;;5.10;;
29662;SDS011;16578;53.266;7.920;2023-09-08T02:21:58;6.30;;;5.70;;
29662;SDS011;16578;53.266;7.920;2023-09-08T02:24:24;5.82;;;5.10;;
29662;SDS011;16578;53.266;7.920;2023-09-08T02:26:49;6.28;;;5.20;;
29662;SDS011;16578;53.266;7.920;2023-09-08T02:29:15;7.03;;;5.57;;
29662;SDS011;16578;53.266;7.920;2023-09-08T02:31:41;5.72;;;5.05;;
29662;SDS011;16578;53.266;7.920;2023-09-08T02:34:06;6.93;;;5.32;;
29662;SDS011;16578;53.266;7.920;2023-09-08T02:36:32;6.90;;;5.60;;
29662;SDS011;16578;53.266;7.920;2023-09-08T02:38:57;5.40;;;4.85;;
29662;SDS011;16578;53.266;7.920;2023-09-08T02:41:23;7.05;;;5.65;;
29662;SDS011;16578;53.266;7.920;2023-09-08T02:43:49;7.43;;;5.53;;
29662;SDS011;16578;53.266;7.920;2023-09-08T02:46:15;6.32;;;5.72;;
29662;SDS011;16578;53.266;7.920;2023-09-08T02:48:41;6.93;;;5.70;;
29662;SDS011;16578;53.266;7.920;2023-09-08T02:51:06;5.55;;;5.05;;
29662;SDS011;16578;53.266;7.920;2023-09-08T02:53:32;7.18;;;5.53;;
29662;SDS011;16578;53.266;7.920;2023-09-08T02:55:58;6.22;;;5.53;;
29662;SDS011;16578;53.266;7.920;2023-09-08T02:58:25;6.55;;;5.68;;
29662;SDS011;16578;53.266;7.920;2023-09-08T03:00:51;6.90;;;5.47;;
29662;SDS011;16578;53.266;7.920;2023-09-08T03:03:18;6.40;;;5.63;;
29662;SDS011;16578;53.266;7.920;2023-09-08T03:05:44;6.15;;;5.43;;
29662;SDS011;16578;53.266;7.920;2023-09-08T03:08:09;6.28;;;5.65;;
29662;SDS011;16578;53.266;7.920;2023-09-08T03:10:35;5.07;;;4.65;;
29662;SDS011;16578;53.266;7.920;2023-09-08T03:13:01;6.47;;;5.88;;
29662;SDS011;16578;53.266;7.920;2023-09-08T03:15:26;6.85;;;5.57;;
29662;SDS011;16578;53.266;7.920;2023-09-08T03:17:56;7.40;;;5.38;;
29662;SDS011;16578;53.266;7.920;2023-09-08T03:20:26;7.47;;;6.10;;
29662;SDS011;16578;53.266;7.920;2023-09-08T03:22:53;7.93;;;5.85;;
29662;SDS011;16578;53.266;7.920;2023-09-08T03:25:19;6.60;;;5.97;;
29662;SDS011;16578;53.266;7.920;2023-09-08T03:27:45;6.45;;;5.40;;
29662;SDS011;16578;53.266;7.920;2023-09-08T03:30:10;6.15;;;5.55;;
29662;SDS011;16578;53.266;7.920;2023-09-08T03:32:37;7.18;;;5.70;;
29662;SDS011;16578;53.266;7.920;2023-09-08T03:35:03;8.73;;;6.15;;
29662;SDS011;16578;53.266;7.920;2023-09-08T03:37:31;6.60;;;5.90;;
29662;SDS011;16578;53.266;7.920;2023-09-08T03:39:57;9.88;;;6.00;;
29662;SDS011;16578;53.266;7.920;2023-09-08T03:42:22;9.05;;;5.75;;
29662;SDS011;16578;53.266;7.920;2023-09-08T03:44:48;6.75;;;6.05;;
29662;SDS011;16578;53.266;7.920;2023-09-08T03:47:13;8.70;;;7.25;;
29662;SDS011;16578;53.266;7.920;2023-09-08T03:49:39;10.57;;;5.55;;
29662;SDS011;16578;53.266;7.920;2023-09-08T03:52:04;7.20;;;5.80;;
29662;SDS011;16578;53.266;7.920;2023-09-08T03:54:30;7.10;;;6.05;;
29662;SDS011;16578;53.266;7.920;2023-09-08T03:56:55;8.05;;;6.40;;
29662;SDS011;16578;53.266;7.920;2023-09-08T03:59:21;7.00;;;5.90;;
29662;SDS011;16578;53.266;7.920;2023-09-08T04:01:47;6.70;;;6.05;;
29662;SDS011;16578;53.266;7.920;2023-09-08T04:04:12;6.43;;;5.82;;
29662;SDS011;16578;53.266;7.920;2023-09-08T04:06:38;6.90;;;5.85;;
29662;SDS011;16578;53.266;7.920;2023-09-08T04:09:03;6.53;;;5.90;;
29662;SDS011;16578;53.266;7.920;2023-09-08T04:11:29;6.88;;;6.18;;
29662;SDS011;16578;53.266;7.920;2023-09-08T04:13:54;6.93;;;6.22;;
29662;SDS011;16578;53.266;7.920;2023-09-08T04:16:20;6.70;;;5.88;;
29662;SDS011;16578;53.266;7.920;2023-09-08T04:18:45;7.38;;;6.68;;
29662;SDS011;16578;53.266;7.920;2023-09-08T04:21:11;6.63;;;5.82;;
29662;SDS011;16578;53.266;7.920;2023-09-08T04:23:36;6.68;;;6.07;;
29662;SDS011;16578;53.266;7.920;2023-09-08T04:26:02;7.70;;;6.32;;
29662;SDS011;16578;53.266;7.920;2023-09-08T04:28:28;7.50;;;6.43;;
29662;SDS011;16578;53.266;7.920;2023-09-08T04:30:53;7.38;;;6.63;;
29662;SDS011;16578;53.266;7.920;2023-09-08T04:33:19;7.75;;;5.90;;
29662;SDS011;16578;53.266;7.920;2023-09-08T04:35:44;6.65;;;6.00;;
29662;SDS011;16578;53.266;7.920;2023-09-08T04:38:10;7.65;;;5.95;;
29662;SDS011;16578;53.266;7.920;2023-09-08T04:40:36;8.07;;;6.68;;
29662;SDS011;16578;53.266;7.920;2023-09-08T04:43:04;7.00;;;6.30;;
29662;SDS011;16578;53.266;7.920;2023-09-08T04:45:30;6.93;;;6.32;;
29662;SDS011;16578;53.266;7.920;2023-09-08T04:47:55;7.50;;;6.72;;
29662;SDS011;16578;53.266;7.920;2023-09-08T04:50:21;9.00;;;6.65;;
29662;SDS011;16578;53.266;7.920;2023-09-08T04:52:46;6.70;;;6.00;;
29662;SDS011;16578;53.266;7.920;2023-09-08T04:55:12;9.27;;;6.30;;
29662;SDS011;16578;53.266;7.920;2023-09-08T04:57:37;8.20;;;7.00;;
29662;SDS011;16578;53.266;7.920;2023-09-08T05:00:03;7.57;;;6.78;;
29662;SDS011;16578;53.266;7.920;2023-09-08T05:02:29;7.53;;;6.82;;
29662;SDS011;16578;53.266;7.920;2023-09-08T05:04:55;6.93;;;6.13;;
29662;SDS011;16578;53.266;7.920;2023-09-08T05:07:20;10.93;;;7.20;;
29662;SDS011;16578;53.266;7.920;2023-09-08T05:09:46;7.63;;;6.65;;
29662;SDS011;16578;53.266;7.920;2023-09-08T05:12:11;7.30;;;6.60;;
29662;SDS011;16578;53.266;7.920;2023-09-08T05:14:37;7.53;;;6.50;;
29662;SDS011;16578;53.266;7.920;2023-09-08T05:17:02;8.48;;;7.07;;
29662;SDS011;16578;53.266;7.920;2023-09-08T05:19:29;7.13;;;6.13;;
29662;SDS011;16578;53.266;7.920;2023-09-08T05:21:55;12.02;;;7.15;;
29662;SDS011;16578;53.266;7.920;2023-09-08T05:24:21;11.70;;;6.93;;
29662;SDS011;16578;53.266;7.920;2023-09-08T05:26:46;8.95;;;7.20;;
29662;SDS011;16578;53.266;7.920;2023-09-08T05:29:12;7.60;;;6.80;;
29662;SDS011;16578;53.266;7.920;2023-09-08T05:31:38;7.82;;;7.03;;
29662;SDS011;16578;53.266;7.920;2023-09-08T05:34:03;7.88;;;7.07;;
29662;SDS011;16578;53.266;7.920;2023-09-08T05:36:29;8.60;;;7.32;;
29662;SDS011;16578;53.266;7.920;2023-09-08T05:38:56;7.78;;;6.97;;
29662;SDS011;16578;53.266;7.920;2023-09-08T05:41:21;8.45;;;7.57;;
29662;SDS011;16578;53.266;7.920;2023-09-08T05:43:47;7.78;;;6.80;;
29662;SDS011;16578;53.266;7.920;2023-09-08T05:46:12;8.73;;;7.20;;
29662;SDS011;16578;53.266;7.920;2023-09-08T05:48:38;6.95;;;6.32;;
29662;SDS011;16578;53.266;7.920;2023-09-08T05:51:04;7.70;;;6.90;;
29662;SDS011;16578;53.266;7.920;2023-09-08T05:53:31;8.18;;;6.72;;
29662;SDS011;16578;53.266;7.920;2023-09-08T05:55:57;8.32;;;7.22;;
29662;SDS011;16578;53.266;7.920;2023-09-08T05:58:23;11.15;;;6.93;;
29662;SDS011;16578;53.266;7.920;2023-09-08T06:00:52;8.13;;;7.18;;
29662;SDS011;16578;53.266;7.920;2023-09-08T06:03:18;9.25;;;7.90;;
29662;SDS011;16578;53.266;7.920;2023-09-08T06:05:44;8.50;;;7.07;;
29662;SDS011;16578;53.266;7.920;2023-09-08T06:08:09;8.10;;;7.30;;
29662;SDS011;16578;53.266;7.920;2023-09-08T06:10:35;11.60;;;7.35;;
29662;SDS011;16578;53.266;7.920;2023-09-08T06:13:00;8.57;;;7.38;;
29662;SDS011;16578;53.266;7.920;2023-09-08T06:15:26;9.00;;;6.93;;
29662;SDS011;16578;53.266;7.920;2023-09-08T06:17:52;7.85;;;7.05;;
29662;SDS011;16578;53.266;7.920;2023-09-08T06:20:17;8.65;;;7.70;;
29662;SDS011;16578;53.266;7.920;2023-09-08T06:22:43;8.60;;;7.63;;
29662;SDS011;16578;53.266;7.920;2023-09-08T06:25:08;8.88;;;6.93;;
29662;SDS011;16578;53.266;7.920;2023-09-08T06:27:34;8.00;;;7.18;;
29662;SDS011;16578;53.266;7.920;2023-09-08T06:30:00;9.48;;;7.10;;
29662;SDS011;16578;53.266;7.920;2023-09-08T06:32:25;9.75;;;8.10;;
29662;SDS011;16578;53.266;7.920;2023-09-08T06:34:51;8.27;;;7.43;;
29662;SDS011;16578;53.266;7.920;2023-09-08T06:37:16;8.40;;;7.57;;
29662;SDS011;16578;53.266;7.920;2023-09-08T06:39:42;8.80;;;7.10;;
29662;SDS011;16578;53.266;7.920;2023-09-08T06:42:07;8.07;;;7.28;;
29662;SDS011;16578;53.266;7.920;2023-09-08T06:44:33;7.85;;;6.93;;
29662;SDS011;16578;53.266;7.920;2023-09-08T06:46:58;13.38;;;7.10;;
29662;SDS011;16578;53.266;7.920;2023-09-08T06:49:24;8.70;;;7.38;;
29662;SDS011;16578;53.266;7.920;2023-09-08T06:51:49;7.60;;;6.88;;
29662;SDS011;16578;53.266;7.920;2023-09-08T06:54:15;8.10;;;7.20;;
29662;SDS011;16578;53.266;7.920;2023-09-08T06:56:41;8.48;;;6.68;;
29662;SDS011;16578;53.266;7.920;2023-09-08T06:59:06;8.77;;;7.78;;
29662;SDS011;16578;53.266;7.920;2023-09-08T07:01:32;8.45;;;7.18;;
29662;SDS011;16578;53.266;7.920;2023-09-08T07:03:57;8.38;;;6.53;;
29662;SDS011;16578;53.266;7.920;2023-09-08T07:06:23;8.57;;;6.93;;
29662;SDS011;16578;53.266;7.920;2023-09-08T07:08:49;7.28;;;6.50;;
29662;SDS011;16578;53.266;7.920;2023-09-08T07:11:15;7.53;;;6.55;;
29662;SDS011;16578;53.266;7.920;2023-09-08T07:13:41;9.68;;;7.30;;
29662;SDS011;16578;53.266;7.920;2023-09-08T07:16:06;8.05;;;7.03;;
29662;SDS011;16578;53.266;7.920;2023-09-08T07:18:32;9.00;;;6.85;;
29662;SDS011;16578;53.266;7.920;2023-09-08T07:25:54;7.75;;;5.75;;
29662;SDS011;16578;53.266;7.920;2023-09-08T07:28:20;7.07;;;6.28;;
29662;SDS011;16578;53.266;7.920;2023-09-08T07:30:45;8.05;;;6.53;;
29662;SDS011;16578;53.266;7.920;2023-09-08T07:33:11;8.25;;;6.32;;
29662;SDS011;16578;53.266;7.920;2023-09-08T07:35:37;8.52;;;6.05;;
29662;SDS011;16578;53.266;7.920;2023-09-08T07:38:03;9.82;;;6.75;;
29662;SDS011;16578;53.266;7.920;2023-09-08T07:40:29;9.02;;;5.75;;
29662;SDS011;16578;53.266;7.920;2023-09-08T07:42:56;10.10;;;6.97;;
29662;SDS011;16578;53.266;7.920;2023-09-08T07:45:21;9.13;;;6.32;;
29662;SDS011;16578;53.266;7.920;2023-09-08T07:47:48;6.50;;;5.82;;
29662;SDS011;16578;53.266;7.920;2023-09-08T07:50:17;8.45;;;6.35;;
29662;SDS011;16578;53.266;7.920;2023-09-08T07:52:50;7.57;;;6.38;;
29662;SDS011;16578;53.266;7.920;2023-09-08T07:55:17;6.70;;;6.07;;
29662;SDS011;16578;53.266;7.920;2023-09-08T07:57:43;7.28;;;6.57;;
29662;SDS011;16578;53.266;7.920;2023-09-08T08:00:14;7.65;;;5.95;;
29662;SDS011;16578;53.266;7.920;2023-09-08T08:02:45;10.50;;;6.38;;
29662;SDS011;16578;53.266;7.920;2023-09-08T08:05:11;8.40;;;6.38;;
29662;SDS011;16578;53.266;7.920;2023-09-08T08:07:37;7.78;;;6.28;;
29662;SDS011;16578;53.266;7.920;2023-09-08T08:10:04;7.07;;;5.82;;
29662;SDS011;16578;53.266;7.920;2023-09-08T08:12:31;7.97;;;6.25;;
29662;SDS011;16578;53.266;7.920;2023-09-08T08:14:56;6.53;;;5.90;;
29662;SDS011;16578;53.266;7.920;2023-09-08T08:17:23;8.00;;;5.78;;
29662;SDS011;16578;53.266;7.920;2023-09-08T08:19:50;6.63;;;6.03;;
29662;SDS011;16578;53.266;7.920;2023-09-08T08:22:16;7.60;;;6.53;;
29662;SDS011;16578;53.266;7.920;2023-09-08T08:24:41;7.00;;;6.28;;
29662;SDS011;16578;53.266;7.920;2023-09-08T08:27:07;6.32;;;5.72;;
29662;SDS011;16578;53.266;7.920;2023-09-08T08:29:33;6.45;;;5.85;;
29662;SDS011;16578;53.266;7.920;2023-09-08T08:31:58;6.43;;;5.78;;
29662;SDS011;16578;53.266;7.920;2023-09-08T08:34:24;6.68;;;5.97;;
29662;SDS011;16578;53.266;7.920;2023-09-08T08:36:49;8.43;;;6.03;;
29662;SDS011;16578;53.266;7.920;2023-09-08T08:39:15;7.63;;;6.45;;
29662;SDS011;16578;53.266;7.920;2023-09-08T08:41:41;7.10;;;6.30;;
29662;SDS011;16578;53.266;7.920;2023-09-08T08:44:06;10.60;;;6.40;;
29662;SDS011;16578;53.266;7.920;2023-09-08T08:46:33;6.18;;;5.57;;
29662;SDS011;16578;53.266;7.920;2023-09-08T08:49:01;7.05;;;5.68;;
29662;SDS011;16578;53.266;7.920;2023-09-08T08:51:30;7.93;;;5.90;;
29662;SDS011;16578;53.266;7.920;2023-09-08T08:53:56;6.75;;;5.32;;
29662;SDS011;16578;53.266;7.920;2023-09-08T08:56:22;7.63;;;5.70;;
29662;SDS011;16578;53.266;7.920;2023-09-08T08:58:48;5.65;;;5.07;;
29662;SDS011;16578;53.266;7.920;2023-09-08T09:01:18;5.50;;;4.95;;
29662;SDS011;16578;53.266;7.920;2023-09-08T09:03:47;5.32;;;4.80;;
29662;SDS011;16578;53.266;7.920;2023-09-08T09:06:15;5.72;;;5.18;;
29662;SDS011;16578;53.266;7.920;2023-09-08T09:08:42;6.70;;;5.28;;
29662;SDS011;16578;53.266;7.920;2023-09-08T09:11:09;5.63;;;5.13;;
29662;SDS011;16578;53.266;7.920;2023-09-08T09:13:35;5.60;;;5.05;;
29662;SDS011;16578;53.266;7.920;2023-09-08T09:16:01;7.13;;;5.38;;
29662;SDS011;16578;53.266;7.920;2023-09-08T09:18:28;7.90;;;5.35;;
29662;SDS011;16578;53.266;7.920;2023-09-08T09:20:56;7.00;;;5.15;;
29662;SDS011;16578;53.266;7.920;2023-09-08T09:23:31;6.40;;;5.32;;
29662;SDS011;16578;53.266;7.920;2023-09-08T09:25:58;5.40;;;4.90;;
29662;SDS011;16578;53.266;7.920;2023-09-08T09:28:26;6.13;;;5.38;;
29662;SDS011;16578;53.266;7.920;2023-09-08T09:30:53;6.55;;;5.47;;
29662;SDS011;16578;53.266;7.920;2023-09-08T09:33:21;7.95;;;5.57;;
29662;SDS011;16578;53.266;7.920;2023-09-08T09:35:48;8.40;;;5.15;;
29662;SDS011;16578;53.266;7.920;2023-09-08T09:38:18;5.55;;;4.55;;
29662;SDS011;16578;53.266;7.920;2023-09-08T09:40:45;6.00;;;4.87;;
29662;SDS011;16578;53.266;7.920;2023-09-08T09:43:11;6.57;;;5.30;;
29662;SDS011;16578;53.266;7.920;2023-09-08T09:45:38;6.55;;;4.90;;
29662;SDS011;16578;53.266;7.920;2023-09-08T09:48:05;5.25;;;4.75;;
29662;SDS011;16578;53.266;7.920;2023-09-08T09:50:32;8.93;;;5.88;;
29662;SDS011;16578;53.266;7.920;2023-09-08T09:53:01;7.60;;;5.20;;
29662;SDS011;16578;53.266;7.920;2023-09-08T09:55:32;4.53;;;4.13;;
29662;SDS011;16578;53.266;7.920;2023-09-08T09:58:01;6.10;;;4.95;;
29662;SDS011;16578;53.266;7.920;2023-09-08T10:00:29;6.63;;;4.93;;
29662;SDS011;16578;53.266;7.920;2023-09-08T10:02:55;7.57;;;5.50;;
29662;SDS011;16578;53.266;7.920;2023-09-08T10:05:21;8.15;;;4.88;;
29662;SDS011;16578;53.266;7.920;2023-09-08T10:07:49;5.90;;;5.00;;
29662;SDS011;16578;53.266;7.920;2023-09-08T10:10:15;7.78;;;4.68;;
29662;SDS011;16578;53.266;7.920;2023-09-08T10:12:44;5.70;;;4.75;;
29662;SDS011;16578;53.266;7.920;2023-09-08T10:15:11;7.32;;;5.05;;
29662;SDS011;16578;53.266;7.920;2023-09-08T10:17:38;4.75;;;4.20;;
29662;SDS011;16578;53.266;7.920;2023-09-08T10:20:06;6.20;;;4.03;;
29662;SDS011;16578;53.266;7.920;2023-09-08T10:22:36;5.63;;;5.03;;
29662;SDS011;16578;53.266;7.920;2023-09-08T10:25:05;5.00;;;4.50;;
29662;SDS011;16578;53.266;7.920;2023-09-08T10:27:32;5.20;;;4.70;;
29662;SDS011;16578;53.266;7.920;2023-09-08T10:30:00;7.47;;;4.75;;
29662;SDS011;16578;53.266;7.920;2023-09-08T10:32:26;6.63;;;5.18;;
29662;SDS011;16578;53.266;7.920;2023-09-08T10:34:53;8.18;;;5.03;;
29662;SDS011;16578;53.266;7.920;2023-09-08T10:37:20;6.75;;;5.15;;
29662;SDS011;16578;53.266;7.920;2023-09-08T10:39:46;4.73;;;4.23;;
29662;SDS011;16578;53.266;7.920;2023-09-08T10:44:41;5.80;;;4.57;;
29662;SDS011;16578;53.266;7.920;2023-09-08T10:47:08;4.93;;;4.47;;
29662;SDS011;16578;53.266;7.920;2023-09-08T10:49:35;6.10;;;4.40;;
29662;SDS011;16578;53.266;7.920;2023-09-08T10:52:07;6.07;;;4.80;;
29662;SDS011;16578;53.266;7.920;2023-09-08T10:54:40;6.07;;;4.90;;
29662;SDS011;16578;53.266;7.920;2023-09-08T10:57:15;5.73;;;4.57;;
29662;SDS011;16578;53.266;7.920;2023-09-08T10:59:54;4.80;;;4.40;;
29662;SDS011;16578;53.266;7.920;2023-09-08T11:02:39;5.10;;;4.38;;
29662;SDS011;16578;53.266;7.920;2023-09-08T11:05:21;5.25;;;4.30;;
29662;SDS011;16578;53.266;7.920;2023-09-08T11:07:47;7.90;;;4.60;;
29662;SDS011;16578;53.266;7.920;2023-09-08T11:10:14;4.85;;;4.10;;
29662;SDS011;16578;53.266;7.920;2023-09-08T11:12:40;4.80;;;4.30;;
29662;SDS011;16578;53.266;7.920;2023-09-08T11:15:06;5.47;;;4.38;;
29662;SDS011;16578;53.266;7.920;2023-09-08T11:17:34;6.47;;;4.50;;
29662;SDS011;16578;53.266;7.920;2023-09-08T11:20:01;4.53;;;4.13;;
29662;SDS011;16578;53.266;7.920;2023-09-08T11:22:33;8.75;;;4.45;;
29662;SDS011;16578;53.266;7.920;2023-09-08T11:25:00;4.45;;;3.80;;
29662;SDS011;16578;53.266;7.920;2023-09-08T11:27:29;4.25;;;3.88;;
29662;SDS011;16578;53.266;7.920;2023-09-08T11:29:55;6.22;;;4.63;;
29662;SDS011;16578;53.266;7.920;2023-09-08T11:32:22;7.97;;;4.10;;
29662;SDS011;16578;53.266;7.920;2023-09-08T11:34:48;5.75;;;4.15;;
29662;SDS011;16578;53.266;7.920;2023-09-08T11:37:14;5.22;;;4.20;;
29662;SDS011;16578;53.266;7.920;2023-09-08T11:39:41;6.55;;;4.35;;
29662;SDS011;16578;53.266;7.920;2023-09-08T11:42:08;6.13;;;4.32;;
29662;SDS011;16578;53.266;7.920;2023-09-08T11:44:35;5.27;;;4.00;;
29662;SDS011;16578;53.266;7.920;2023-09-08T11:47:02;4.47;;;3.90;;
29662;SDS011;16578;53.266;7.920;2023-09-08T11:49:38;3.88;;;3.53;;
29662;SDS011;16578;53.266;7.920;2023-09-08T11:52:05;4.68;;;4.05;;
29662;SDS011;16578;53.266;7.920;2023-09-08T11:54:32;5.47;;;4.63;;
29662;SDS011;16578;53.266;7.920;2023-09-08T11:57:02;4.85;;;4.35;;
29662;SDS011;16578;53.266;7.920;2023-09-08T11:59:34;5.30;;;4.50;;
29662;SDS011;16578;53.266;7.920;2023-09-08T12:02:00;8.02;;;4.10;;
29662;SDS011;16578;53.266;7.920;2023-09-08T12:04:26;5.50;;;4.03;;
29662;SDS011;16578;53.266;7.920;2023-09-08T12:06:52;4.55;;;4.13;;
29662;SDS011;16578;53.266;7.920;2023-09-08T12:09:20;6.50;;;4.55;;
29662;SDS011;16578;53.266;7.920;2023-09-08T12:11:46;4.68;;;3.88;;
29662;SDS011;16578;53.266;7.920;2023-09-08T12:14:12;7.05;;;4.50;;
29662;SDS011;16578;53.266;7.920;2023-09-08T12:16:39;4.53;;;3.90;;
29662;SDS011;16578;53.266;7.920;2023-09-08T12:19:05;5.28;;;4.22;;
29662;SDS011;16578;53.266;7.920;2023-09-08T12:21:32;4.30;;;3.90;;
29662;SDS011;16578;53.266;7.920;2023-09-08T12:24:18;4.68;;;4.03;;
29662;SDS011;16578;53.266;7.920;2023-09-08T12:26:44;6.10;;;4.15;;
29662;SDS011;16578;53.266;7.920;2023-09-08T12:29:12;5.43;;;4.28;;
29662;SDS011;16578;53.266;7.920;2023-09-08T12:31:38;7.72;;;4.45;;
29662;SDS011;16578;53.266;7.920;2023-09-08T12:34:04;4.35;;;3.95;;
29662;SDS011;16578;53.266;7.920;2023-09-08T12:36:29;5.60;;;4.22;;
29662;SDS011;16578;53.266;7.920;2023-09-08T12:38:55;4.75;;;3.85;;
29662;SDS011;16578;53.266;7.920;2023-09-08T12:41:20;3.80;;;3.45;;
29662;SDS011;16578;53.266;7.920;2023-09-08T12:43:46;4.65;;;3.88;;
29662;SDS011;16578;53.266;7.920;2023-09-08T12:46:12;4.20;;;3.90;;
29662;SDS011;16578;53.266;7.920;2023-09-08T12:48:37;4.78;;;3.58;;
29662;SDS011;16578;53.266;7.920;2023-09-08T12:51:03;3.90;;;3.50;;
29662;SDS011;16578;53.266;7.920;2023-09-08T12:53:33;5.15;;;3.78;;
29662;SDS011;16578;53.266;7.920;2023-09-08T12:56:02;5.30;;;3.95;;
29662;SDS011;16578;53.266;7.920;2023-09-08T12:58:27;5.70;;;3.97;;
29662;SDS011;16578;53.266;7.920;2023-09-08T13:00:53;6.20;;;3.20;;
29662;SDS011;16578;53.266;7.920;2023-09-08T13:03:19;9.70;;;3.65;;
29662;SDS011;16578;53.266;7.920;2023-09-08T13:05:45;5.22;;;3.53;;
29662;SDS011;16578;53.266;7.920;2023-09-08T13:08:10;4.60;;;3.42;;
29662;SDS011;16578;53.266;7.920;2023-09-08T13:10:36;4.22;;;3.38;;
29662;SDS011;16578;53.266;7.920;2023-09-08T13:13:02;3.80;;;3.50;;
29662;SDS011;16578;53.266;7.920;2023-09-08T13:15:29;3.60;;;3.13;;
29662;SDS011;16578;53.266;7.920;2023-09-08T13:17:55;4.05;;;3.65;;
29662;SDS011;16578;53.266;7.920;2023-09-08T13:20:21;3.55;;;3.25;;
29662;SDS011;16578;53.266;7.920;2023-09-08T13:22:46;5.18;;;3.75;;
29662;SDS011;16578;53.266;7.920;2023-09-08T13:25:12;4.13;;;3.05;;
29662;SDS011;16578;53.266;7.920;2023-09-08T13:27:40;5.60;;;3.65;;
29662;SDS011;16578;53.266;7.920;2023-09-08T13:30:14;4.82;;;3.47;;
29662;SDS011;16578;53.266;7.920;2023-09-08T13:32:40;4.45;;;3.10;;
29662;SDS011;16578;53.266;7.920;2023-09-08T13:35:07;3.72;;;3.42;;
29662;SDS011;16578;53.266;7.920;2023-09-08T13:37:33;4.32;;;3.38;;
29662;SDS011;16578;53.266;7.920;2023-09-08T13:40:05;4.47;;;3.15;;
29662;SDS011;16578;53.266;7.920;2023-09-08T13:42:31;4.32;;;3.53;;
29662;SDS011;16578;53.266;7.920;2023-09-08T13:44:56;7.07;;;3.33;;
29662;SDS011;16578;53.266;7.920;2023-09-08T13:47:22;3.88;;;3.58;;
29662;SDS011;16578;53.266;7.920;2023-09-08T13:49:48;4.22;;;3.33;;
29662;SDS011;16578;53.266;7.920;2023-09-08T13:52:13;4.93;;;3.28;;
29662;SDS011;16578;53.266;7.920;2023-09-08T13:54:39;4.13;;;3.40;;
29662;SDS011;16578;53.266;7.920;2023-09-08T13:57:05;4.15;;;2.90;;
29662;SDS011;16578;53.266;7.920;2023-09-08T13:59:31;7.80;;;3.15;;
29662;SDS011;16578;53.266;7.920;2023-09-08T14:01:56;3.63;;;3.33;;
29662;SDS011;16578;53.266;7.920;2023-09-08T14:04:23;5.22;;;3.05;;
29662;SDS011;16578;53.266;7.920;2023-09-08T14:06:49;4.60;;;3.00;;
29662;SDS011;16578;53.266;7.920;2023-09-08T14:09:15;4.47;;;3.35;;
29662;SDS011;16578;53.266;7.920;2023-09-08T14:11:41;4.45;;;3.25;;
29662;SDS011;16578;53.266;7.920;2023-09-08T14:14:07;3.67;;;3.38;;
29662;SDS011;16578;53.266;7.920;2023-09-08T14:16:32;3.75;;;2.95;;
29662;SDS011;16578;53.266;7.920;2023-09-08T14:18:58;5.70;;;3.20;;
29662;SDS011;16578;53.266;7.920;2023-09-08T14:21:23;4.00;;;3.42;;
29662;SDS011;16578;53.266;7.920;2023-09-08T14:23:49;5.50;;;2.85;;
29662;SDS011;16578;53.266;7.920;2023-09-08T14:26:14;4.65;;;3.00;;
29662;SDS011;16578;53.266;7.920;2023-09-08T14:28:40;2.85;;;2.55;;
29662;SDS011;16578;53.266;7.920;2023-09-08T14:31:06;3.53;;;3.22;;
29662;SDS011;16578;53.266;7.920;2023-09-08T14:33:31;3.40;;;3.05;;
29662;SDS011;16578;53.266;7.920;2023-09-08T14:35:57;4.00;;;2.97;;
29662;SDS011;16578;53.266;7.920;2023-09-08T14:38:22;3.60;;;2.90;;
29662;SDS011;16578;53.266;7.920;2023-09-08T14:41:01;3.35;;;3.05;;
29662;SDS011;16578;53.266;7.920;2023-09-08T14:43:28;3.55;;;3.22;;
29662;SDS011;16578;53.266;7.920;2023-09-08T14:45:54;3.55;;;3.03;;
29662;SDS011;16578;53.266;7.920;2023-09-08T14:48:22;3.60;;;3.30;;
29662;SDS011;16578;53.266;7.920;2023-09-08T14:50:48;4.35;;;3.17;;
29662;SDS011;16578;53.266;7.920;2023-09-08T14:53:13;3.75;;;2.88;;
29662;SDS011;16578;53.266;7.920;2023-09-08T14:55:39;3.72;;;3.38;;